sensor_id;sensor_type;location;lat;lon;timestamp;pressure;altitude;pressure_sealevel;temperature
34125;BMP280;20110;53.120;5.786;2023-06-10T00:02:09;101791.06;;;19.97
34125;BMP280;20110;53.120;5.786;2023-06-10T00:04:35;101810.03;;;20.06
34125;BMP280;20110;53.120;5.786;2023-06-10T00:07:05;101793.59;;;19.95
34125;BMP280;20110;53.120;5.786;2023-06-10T00:09:35;101793.44;;;19.93
34125;BMP280;20110;53.120;5.786;2023-06-10T00:12:07;101780.84;;;19.78
34125;BMP280;20110;53.120;5.786;2023-06-10T00:14:39;101771.94;;;19.68
34125;BMP280;20110;53.120;5.786;2023-06-10T00:17:08;101811.22;;;19.96
34125;BMP280;20110;53.120;5.786;2023-06-10T00:19:34;101796.47;;;19.80
34125;BMP280;20110;53.120;5.786;2023-06-10T00:22:00;101800.97;;;19.77
34125;BMP280;20110;53.120;5.786;2023-06-10T00:24:26;101795.63;;;19.69
34125;BMP280;20110;53.120;5.786;2023-06-10T00:26:52;101818.56;;;19.78
34125;BMP280;20110;53.120;5.786;2023-06-10T00:29:18;101808.31;;;19.77
34125;BMP280;20110;53.120;5.786;2023-06-10T00:31:45;101810.84;;;19.75
34125;BMP280;20110;53.120;5.786;2023-06-10T00:34:12;101814.09;;;19.73
34125;BMP280;20110;53.120;5.786;2023-06-10T00:36:38;101769.47;;;19.38
34125;BMP280;20110;53.120;5.786;2023-06-10T00:39:04;101804.31;;;19.60
34125;BMP280;20110;53.120;5.786;2023-06-10T00:41:30;101808.84;;;19.58
34125;BMP280;20110;53.120;5.786;2023-06-10T00:43:57;101803.66;;;19.52
34125;BMP280;20110;53.120;5.786;2023-06-10T00:46:24;101803.72;;;19.45
34125;BMP280;20110;53.120;5.786;2023-06-10T00:48:51;101815.53;;;19.49
34125;BMP280;20110;53.120;5.786;2023-06-10T00:51:19;101816.13;;;19.48
34125;BMP280;20110;53.120;5.786;2023-06-10T00:53:45;101819.81;;;19.52
34125;BMP280;20110;53.120;5.786;2023-06-10T00:56:13;101773.97;;;19.10
34125;BMP280;20110;53.120;5.786;2023-06-10T00:58:39;101817.75;;;19.43
34125;BMP280;20110;53.120;5.786;2023-06-10T01:01:05;101801.72;;;19.20
34125;BMP280;20110;53.120;5.786;2023-06-10T01:03:31;101826.63;;;19.28
34125;BMP280;20110;53.120;5.786;2023-06-10T01:06:41;101823.97;;;19.21
34125;BMP280;20110;53.120;5.786;2023-06-10T01:09:25;101795.94;;;18.99
34125;BMP280;20110;53.120;5.786;2023-06-10T01:14:55;101800.03;;;19.00
34125;BMP280;20110;53.120;5.786;2023-06-10T01:17:21;101817.97;;;19.05
34125;BMP280;20110;53.120;5.786;2023-06-10T01:19:57;101832.16;;;19.06
34125;BMP280;20110;53.120;5.786;2023-06-10T01:22:27;101835.16;;;19.10
34125;BMP280;20110;53.120;5.786;2023-06-10T01:25:02;101831.81;;;19.02
34125;BMP280;20110;53.120;5.786;2023-06-10T01:27:33;101838.25;;;19.06
34125;BMP280;20110;53.120;5.786;2023-06-10T01:30:14;101828.78;;;18.98
34125;BMP280;20110;53.120;5.786;2023-06-10T01:32:48;101817.81;;;18.96
34125;BMP280;20110;53.120;5.786;2023-06-10T01:35:17;101829.84;;;19.02
34125;BMP280;20110;53.120;5.786;2023-06-10T01:37:48;101825.19;;;19.03
34125;BMP280;20110;53.120;5.786;2023-06-10T01:40:16;101819.97;;;18.97
34125;BMP280;20110;53.120;5.786;2023-06-10T01:42:42;101823.94;;;18.96
34125;BMP280;20110;53.120;5.786;2023-06-10T01:45:08;101835.94;;;19.03
34125;BMP280;20110;53.120;5.786;2023-06-10T01:47:34;101785.81;;;18.75
34125;BMP280;20110;53.120;5.786;2023-06-10T01:50:00;101802.81;;;18.85
34125;BMP280;20110;53.120;5.786;2023-06-10T01:52:26;101826.78;;;18.98
34125;BMP280;20110;53.120;5.786;2023-06-10T01:54:53;101819.28;;;18.89
34125;BMP280;20110;53.120;5.786;2023-06-10T01:57:19;101825.75;;;18.94
34125;BMP280;20110;53.120;5.786;2023-06-10T01:59:45;101813.25;;;18.81
34125;BMP280;20110;53.120;5.786;2023-06-10T02:02:11;101825.22;;;18.87
34125;BMP280;20110;53.120;5.786;2023-06-10T02:04:38;101828.09;;;18.89
34125;BMP280;20110;53.120;5.786;2023-06-10T02:07:04;101811.69;;;18.70
34125;BMP280;20110;53.120;5.786;2023-06-10T02:09:32;101820.44;;;18.78
34125;BMP280;20110;53.120;5.786;2023-06-10T02:12:04;101810.00;;;18.75
34125;BMP280;20110;53.120;5.786;2023-06-10T02:14:33;101825.78;;;18.86
34125;BMP280;20110;53.120;5.786;2023-06-10T02:16:59;101804.47;;;18.73
34125;BMP280;20110;53.120;5.786;2023-06-10T02:19:25;101832.59;;;18.87
34125;BMP280;20110;53.120;5.786;2023-06-10T02:21:52;101827.75;;;18.85
34125;BMP280;20110;53.120;5.786;2023-06-10T02:24:18;101833.53;;;18.82
34125;BMP280;20110;53.120;5.786;2023-06-10T02:26:44;101828.69;;;18.73
34125;BMP280;20110;53.120;5.786;2023-06-10T02:29:10;101828.00;;;18.65
34125;BMP280;20110;53.120;5.786;2023-06-10T02:31:36;101838.94;;;18.74
34125;BMP280;20110;53.120;5.786;2023-06-10T02:34:03;101834.47;;;18.69
34125;BMP280;20110;53.120;5.786;2023-06-10T02:36:29;101833.91;;;18.71
34125;BMP280;20110;53.120;5.786;2023-06-10T02:38:55;101835.19;;;18.70
34125;BMP280;20110;53.120;5.786;2023-06-10T02:41:21;101799.38;;;18.44
34125;BMP280;20110;53.120;5.786;2023-06-10T02:43:47;101812.41;;;18.56
34125;BMP280;20110;53.120;5.786;2023-06-10T02:46:13;101842.16;;;18.73
34125;BMP280;20110;53.120;5.786;2023-06-10T02:48:43;101837.66;;;18.68
34125;BMP280;20110;53.120;5.786;2023-06-10T02:51:12;101839.63;;;18.75
34125;BMP280;20110;53.120;5.786;2023-06-10T02:53:37;101838.22;;;18.74
34125;BMP280;20110;53.120;5.786;2023-06-10T02:56:03;101809.72;;;18.56
34125;BMP280;20110;53.120;5.786;2023-06-10T02:58:29;101838.22;;;18.74
34125;BMP280;20110;53.120;5.786;2023-06-10T03:00:56;101838.94;;;18.74
34125;BMP280;20110;53.120;5.786;2023-06-10T03:03:22;101835.34;;;18.72
34125;BMP280;20110;53.120;5.786;2023-06-10T03:05:49;101829.41;;;18.73
34125;BMP280;20110;53.120;5.786;2023-06-10T03:08:14;101831.72;;;18.77
34125;BMP280;20110;53.120;5.786;2023-06-10T03:10:40;101830.66;;;18.72
34125;BMP280;20110;53.120;5.786;2023-06-10T03:13:06;101839.44;;;18.80
34125;BMP280;20110;53.120;5.786;2023-06-10T03:15:32;101826.19;;;18.67
34125;BMP280;20110;53.120;5.786;2023-06-10T03:18:00;101828.38;;;18.69
34125;BMP280;20110;53.120;5.786;2023-06-10T03:20:26;101839.28;;;18.71
34125;BMP280;20110;53.120;5.786;2023-06-10T03:22:53;101848.25;;;18.73
34125;BMP280;20110;53.120;5.786;2023-06-10T03:25:19;101847.53;;;18.73
34125;BMP280;20110;53.120;5.786;2023-06-10T03:27:46;101852.19;;;18.72
34125;BMP280;20110;53.120;5.786;2023-06-10T03:30:13;101817.81;;;18.56
34125;BMP280;20110;53.120;5.786;2023-06-10T03:32:40;101843.59;;;18.74
34125;BMP280;20110;53.120;5.786;2023-06-10T03:35:07;101825.69;;;18.61
34125;BMP280;20110;53.120;5.786;2023-06-10T03:37:33;101820.81;;;18.67
34125;BMP280;20110;53.120;5.786;2023-06-10T03:39:59;101841.06;;;18.76
34125;BMP280;20110;53.120;5.786;2023-06-10T03:42:25;101837.88;;;18.70
34125;BMP280;20110;53.120;5.786;2023-06-10T03:44:50;101839.47;;;18.73
34125;BMP280;20110;53.120;5.786;2023-06-10T03:47:16;101846.97;;;18.82
34125;BMP280;20110;53.120;5.786;2023-06-10T03:49:42;101845.16;;;18.84
34125;BMP280;20110;53.120;5.786;2023-06-10T03:52:08;101818.13;;;18.67
34125;BMP280;20110;53.120;5.786;2023-06-10T03:54:34;101798.44;;;18.57
34125;BMP280;20110;53.120;5.786;2023-06-10T03:57:01;101842.94;;;18.98
34125;BMP280;20110;53.120;5.786;2023-06-10T03:59:26;101828.97;;;18.92
34125;BMP280;20110;53.120;5.786;2023-06-10T04:01:52;101844.34;;;19.07
34125;BMP280;20110;53.120;5.786;2023-06-10T04:04:18;101835.56;;;19.06
34125;BMP280;20110;53.120;5.786;2023-06-10T04:06:44;101850.03;;;19.18
34125;BMP280;20110;53.120;5.786;2023-06-10T04:09:11;101839.25;;;19.18
34125;BMP280;20110;53.120;5.786;2023-06-10T04:11:37;101834.59;;;19.19
34125;BMP280;20110;53.120;5.786;2023-06-10T04:14:02;101812.91;;;19.09
34125;BMP280;20110;53.120;5.786;2023-06-10T04:16:28;101837.94;;;19.35
34125;BMP280;20110;53.120;5.786;2023-06-10T04:18:54;101790.47;;;19.14
34125;BMP280;20110;53.120;5.786;2023-06-10T04:21:21;101854.78;;;19.67
34125;BMP280;20110;53.120;5.786;2023-06-10T04:23:48;101849.84;;;19.74
34125;BMP280;20110;53.120;5.786;2023-06-10T04:26:14;101858.41;;;19.87
34125;BMP280;20110;53.120;5.786;2023-06-10T04:28:40;101867.84;;;19.96
34125;BMP280;20110;53.120;5.786;2023-06-10T04:31:05;101851.47;;;19.94
34125;BMP280;20110;53.120;5.786;2023-06-10T04:33:31;101854.69;;;20.00
34125;BMP280;20110;53.120;5.786;2023-06-10T04:35:57;101836.16;;;19.96
34125;BMP280;20110;53.120;5.786;2023-06-10T04:38:23;101868.09;;;20.25
34125;BMP280;20110;53.120;5.786;2023-06-10T04:40:49;101868.19;;;20.34
34125;BMP280;20110;53.120;5.786;2023-06-10T04:43:15;101875.50;;;20.41
34125;BMP280;20110;53.120;5.786;2023-06-10T04:45:41;101871.69;;;20.44
34125;BMP280;20110;53.120;5.786;2023-06-10T04:48:10;101872.84;;;20.51
34125;BMP280;20110;53.120;5.786;2023-06-10T04:50:37;101870.06;;;20.59
34125;BMP280;20110;53.120;5.786;2023-06-10T04:53:03;101875.25;;;20.64
34125;BMP280;20110;53.120;5.786;2023-06-10T04:55:29;101876.41;;;20.71
34125;BMP280;20110;53.120;5.786;2023-06-10T04:57:55;101867.47;;;20.68
34125;BMP280;20110;53.120;5.786;2023-06-10T05:00:21;101849.19;;;20.59
34125;BMP280;20110;53.120;5.786;2023-06-10T05:02:47;101866.56;;;20.83
34125;BMP280;20110;53.120;5.786;2023-06-10T05:05:18;101855.50;;;20.88
34125;BMP280;20110;53.120;5.786;2023-06-10T05:07:44;101883.91;;;21.07
34125;BMP280;20110;53.120;5.786;2023-06-10T05:10:10;101884.25;;;21.20
34125;BMP280;20110;53.120;5.786;2023-06-10T05:12:38;101880.44;;;21.23
34125;BMP280;20110;53.120;5.786;2023-06-10T05:15:07;101870.34;;;21.24
34125;BMP280;20110;53.120;5.786;2023-06-10T05:17:33;101860.69;;;21.30
34125;BMP280;20110;53.120;5.786;2023-06-10T05:20:01;101883.84;;;21.51
34125;BMP280;20110;53.120;5.786;2023-06-10T05:22:27;101893.41;;;21.61
34125;BMP280;20110;53.120;5.786;2023-06-10T05:24:53;101891.84;;;21.68
34125;BMP280;20110;53.120;5.786;2023-06-10T05:27:19;101872.63;;;21.64
34125;BMP280;20110;53.120;5.786;2023-06-10T05:29:45;101886.75;;;21.82
34125;BMP280;20110;53.120;5.786;2023-06-10T05:32:11;101853.13;;;21.65
34125;BMP280;20110;53.120;5.786;2023-06-10T05:34:37;101871.97;;;21.83
34125;BMP280;20110;53.120;5.786;2023-06-10T05:37:03;101876.81;;;21.94
34125;BMP280;20110;53.120;5.786;2023-06-10T05:39:29;101887.22;;;22.07
34125;BMP280;20110;53.120;5.786;2023-06-10T05:41:55;101897.88;;;22.24
34125;BMP280;20110;53.120;5.786;2023-06-10T05:44:23;101882.09;;;22.20
34125;BMP280;20110;53.120;5.786;2023-06-10T05:46:49;101897.19;;;22.33
34125;BMP280;20110;53.120;5.786;2023-06-10T05:49:15;101881.25;;;22.28
34125;BMP280;20110;53.120;5.786;2023-06-10T05:51:41;101879.13;;;22.36
34125;BMP280;20110;53.120;5.786;2023-06-10T05:54:07;101912.28;;;22.65
34125;BMP280;20110;53.120;5.786;2023-06-10T05:56:33;101889.50;;;22.58
34125;BMP280;20110;53.120;5.786;2023-06-10T05:59:01;101906.56;;;22.80
34125;BMP280;20110;53.120;5.786;2023-06-10T06:01:26;101888.00;;;22.77
34125;BMP280;20110;53.120;5.786;2023-06-10T06:03:52;101894.41;;;22.91
34125;BMP280;20110;53.120;5.786;2023-06-10T06:06:18;101895.94;;;23.03
34125;BMP280;20110;53.120;5.786;2023-06-10T06:08:46;101847.00;;;22.71
34125;BMP280;20110;53.120;5.786;2023-06-10T06:11:12;101896.31;;;23.19
34125;BMP280;20110;53.120;5.786;2023-06-10T06:13:37;101889.75;;;23.22
34125;BMP280;20110;53.120;5.786;2023-06-10T06:16:03;101895.38;;;23.36
34125;BMP280;20110;53.120;5.786;2023-06-10T06:18:29;101886.41;;;23.33
34125;BMP280;20110;53.120;5.786;2023-06-10T06:20:55;101898.75;;;23.46
34125;BMP280;20110;53.120;5.786;2023-06-10T06:23:21;101880.09;;;23.40
34125;BMP280;20110;53.120;5.786;2023-06-10T06:25:46;101884.28;;;23.53
34125;BMP280;20110;53.120;5.786;2023-06-10T06:28:12;101887.66;;;23.63
34125;BMP280;20110;53.120;5.786;2023-06-10T06:30:38;101898.34;;;23.71
34125;BMP280;20110;53.120;5.786;2023-06-10T06:33:04;101890.84;;;23.81
34125;BMP280;20110;53.120;5.786;2023-06-10T06:35:33;101898.31;;;23.92
34125;BMP280;20110;53.120;5.786;2023-06-10T06:38:00;101889.88;;;23.98
34125;BMP280;20110;53.120;5.786;2023-06-10T06:40:25;101897.59;;;24.13
34125;BMP280;20110;53.120;5.786;2023-06-10T06:42:51;101898.69;;;24.19
34125;BMP280;20110;53.120;5.786;2023-06-10T06:45:17;101907.47;;;24.29
34125;BMP280;20110;53.120;5.786;2023-06-10T06:47:43;101898.13;;;24.32
34125;BMP280;20110;53.120;5.786;2023-06-10T06:50:09;101894.16;;;24.45
34125;BMP280;20110;53.120;5.786;2023-06-10T06:52:35;101867.09;;;24.35
34125;BMP280;20110;53.120;5.786;2023-06-10T06:55:01;101885.00;;;24.62
34125;BMP280;20110;53.120;5.786;2023-06-10T06:57:27;101893.03;;;24.83
34125;BMP280;20110;53.120;5.786;2023-06-10T06:59:53;101874.97;;;24.76
34125;BMP280;20110;53.120;5.786;2023-06-10T07:02:19;101896.00;;;24.99
34125;BMP280;20110;53.120;5.786;2023-06-10T07:04:45;101893.28;;;25.10
34125;BMP280;20110;53.120;5.786;2023-06-10T07:07:12;101886.56;;;25.11
34125;BMP280;20110;53.120;5.786;2023-06-10T07:09:38;101861.16;;;24.95
34125;BMP280;20110;53.120;5.786;2023-06-10T07:12:04;101895.28;;;25.21
34125;BMP280;20110;53.120;5.786;2023-06-10T07:14:31;101872.25;;;25.11
34125;BMP280;20110;53.120;5.786;2023-06-10T07:16:56;101890.91;;;25.28
34125;BMP280;20110;53.120;5.786;2023-06-10T07:19:22;101898.69;;;25.34
34125;BMP280;20110;53.120;5.786;2023-06-10T07:21:48;101826.06;;;24.99
34125;BMP280;20110;53.120;5.786;2023-06-10T07:24:14;101895.69;;;25.53
34125;BMP280;20110;53.120;5.786;2023-06-10T07:26:40;101903.63;;;25.60
34125;BMP280;20110;53.120;5.786;2023-06-10T07:29:06;101905.38;;;25.67
34125;BMP280;20110;53.120;5.786;2023-06-10T07:31:31;101909.09;;;25.86
34125;BMP280;20110;53.120;5.786;2023-06-10T07:33:57;101891.47;;;25.87
34125;BMP280;20110;53.120;5.786;2023-06-10T07:36:23;101910.50;;;26.12
34125;BMP280;20110;53.120;5.786;2023-06-10T07:38:49;101909.03;;;26.23
34125;BMP280;20110;53.120;5.786;2023-06-10T07:41:15;101895.34;;;26.21
34125;BMP280;20110;53.120;5.786;2023-06-10T07:43:43;101861.19;;;26.06
34125;BMP280;20110;53.120;5.786;2023-06-10T07:46:09;101905.16;;;26.39
34125;BMP280;20110;53.120;5.786;2023-06-10T07:48:35;101915.06;;;26.46
34125;BMP280;20110;53.120;5.786;2023-06-10T07:51:00;101914.16;;;26.55
34125;BMP280;20110;53.120;5.786;2023-06-10T07:53:26;101920.38;;;26.83
34125;BMP280;20110;53.120;5.786;2023-06-10T07:55:53;101918.97;;;26.96
34125;BMP280;20110;53.120;5.786;2023-06-10T07:58:19;101868.06;;;26.73
34125;BMP280;20110;53.120;5.786;2023-06-10T08:00:46;101897.25;;;26.98
34125;BMP280;20110;53.120;5.786;2023-06-10T08:03:12;101884.09;;;27.08
34125;BMP280;20110;53.120;5.786;2023-06-10T08:05:39;101911.66;;;27.28
34125;BMP280;20110;53.120;5.786;2023-06-10T08:08:05;101876.81;;;27.26
34125;BMP280;20110;53.120;5.786;2023-06-10T08:10:31;101898.16;;;27.59
34125;BMP280;20110;53.120;5.786;2023-06-10T08:12:57;101896.44;;;27.81
34125;BMP280;20110;53.120;5.786;2023-06-10T08:15:25;101914.13;;;28.10
34125;BMP280;20110;53.120;5.786;2023-06-10T08:17:51;101901.19;;;28.10
34125;BMP280;20110;53.120;5.786;2023-06-10T08:20:18;101878.88;;;28.00
34125;BMP280;20110;53.120;5.786;2023-06-10T08:22:44;101908.75;;;28.27
34125;BMP280;20110;53.120;5.786;2023-06-10T08:25:10;101885.25;;;28.20
34125;BMP280;20110;53.120;5.786;2023-06-10T08:27:35;101895.03;;;28.41
34125;BMP280;20110;53.120;5.786;2023-06-10T08:30:01;101911.13;;;28.66
34125;BMP280;20110;53.120;5.786;2023-06-10T08:32:27;101906.63;;;28.73
34125;BMP280;20110;53.120;5.786;2023-06-10T08:34:53;101921.13;;;28.93
34125;BMP280;20110;53.120;5.786;2023-06-10T08:37:19;101910.91;;;28.93
34125;BMP280;20110;53.120;5.786;2023-06-10T08:39:45;101900.06;;;28.95
34125;BMP280;20110;53.120;5.786;2023-06-10T08:42:39;101908.56;;;29.03
34125;BMP280;20110;53.120;5.786;2023-06-10T08:45:10;101896.72;;;29.15
34125;BMP280;20110;53.120;5.786;2023-06-10T08:47:42;101917.34;;;29.35
34125;BMP280;20110;53.120;5.786;2023-06-10T08:50:10;101929.66;;;29.52
34125;BMP280;20110;53.120;5.786;2023-06-10T08:52:42;101895.25;;;29.29
34125;BMP280;20110;53.120;5.786;2023-06-10T08:55:41;101925.03;;;29.57
34125;BMP280;20110;53.120;5.786;2023-06-10T08:58:07;101908.47;;;29.52
34125;BMP280;20110;53.120;5.786;2023-06-10T09:00:34;101920.59;;;29.65
34125;BMP280;20110;53.120;5.786;2023-06-10T09:03:00;101894.00;;;29.50
34125;BMP280;20110;53.120;5.786;2023-06-10T09:05:29;101924.63;;;29.82
34125;BMP280;20110;53.120;5.786;2023-06-10T09:07:59;101922.97;;;29.92
34125;BMP280;20110;53.120;5.786;2023-06-10T09:10:26;101919.91;;;30.02
34125;BMP280;20110;53.120;5.786;2023-06-10T09:12:52;101923.00;;;30.12
34125;BMP280;20110;53.120;5.786;2023-06-10T09:15:19;101901.91;;;30.17
34125;BMP280;20110;53.120;5.786;2023-06-10T09:17:45;101921.31;;;30.42
34125;BMP280;20110;53.120;5.786;2023-06-10T09:20:12;101915.47;;;30.52
34125;BMP280;20110;53.120;5.786;2023-06-10T09:22:38;101915.28;;;30.66
34125;BMP280;20110;53.120;5.786;2023-06-10T09:25:06;101893.06;;;30.58
34125;BMP280;20110;53.120;5.786;2023-06-10T09:27:51;101902.69;;;30.80
34125;BMP280;20110;53.120;5.786;2023-06-10T09:30:31;101915.16;;;31.05
34125;BMP280;20110;53.120;5.786;2023-06-10T09:33:00;101907.91;;;31.14
34125;BMP280;20110;53.120;5.786;2023-06-10T09:35:29;101918.94;;;31.16
34125;BMP280;20110;53.120;5.786;2023-06-10T09:37:58;101893.59;;;30.95
34125;BMP280;20110;53.120;5.786;2023-06-10T09:40:24;101897.88;;;31.00
34125;BMP280;20110;53.120;5.786;2023-06-10T09:42:59;101882.38;;;30.87
34125;BMP280;20110;53.120;5.786;2023-06-10T09:45:31;101893.41;;;31.11
34125;BMP280;20110;53.120;5.786;2023-06-10T09:47:57;101912.25;;;31.44
34125;BMP280;20110;53.120;5.786;2023-06-10T09:50:23;101879.81;;;31.39
34125;BMP280;20110;53.120;5.786;2023-06-10T09:52:51;101921.09;;;31.65
34125;BMP280;20110;53.120;5.786;2023-06-10T09:55:17;101912.84;;;31.65
34125;BMP280;20110;53.120;5.786;2023-06-10T09:57:44;101919.47;;;31.81
34125;BMP280;20110;53.120;5.786;2023-06-10T10:00:14;101921.66;;;31.85
34125;BMP280;20110;53.120;5.786;2023-06-10T10:02:50;101914.41;;;31.95
34125;BMP280;20110;53.120;5.786;2023-06-10T10:05:21;101927.47;;;32.21
34125;BMP280;20110;53.120;5.786;2023-06-10T10:07:47;101916.63;;;32.82
34125;BMP280;20110;53.120;5.786;2023-06-10T10:10:15;101928.94;;;33.77
34125;BMP280;20110;53.120;5.786;2023-06-10T10:12:42;101905.59;;;34.63
34125;BMP280;20110;53.120;5.786;2023-06-10T10:15:10;101927.63;;;35.63
34125;BMP280;20110;53.120;5.786;2023-06-10T10:18:07;101930.72;;;36.90
34125;BMP280;20110;53.120;5.786;2023-06-10T10:20:45;101905.94;;;37.52
34125;BMP280;20110;53.120;5.786;2023-06-10T10:23:18;101922.56;;;38.45
34125;BMP280;20110;53.120;5.786;2023-06-10T10:25:53;101894.75;;;38.65
34125;BMP280;20110;53.120;5.786;2023-06-10T10:28:24;101898.66;;;39.19
34125;BMP280;20110;53.120;5.786;2023-06-10T10:30:59;101911.09;;;40.11
34125;BMP280;20110;53.120;5.786;2023-06-10T10:36:05;101898.16;;;40.99
34125;BMP280;20110;53.120;5.786;2023-06-10T10:38:32;101910.47;;;41.14
34125;BMP280;20110;53.120;5.786;2023-06-10T10:40:59;101922.81;;;41.70
34125;BMP280;20110;53.120;5.786;2023-06-10T10:43:30;101915.56;;;42.20
34125;BMP280;20110;53.120;5.786;2023-06-10T10:46:01;101903.28;;;42.42
34125;BMP280;20110;53.120;5.786;2023-06-10T10:48:33;101915.97;;;42.67
34125;BMP280;20110;53.120;5.786;2023-06-10T10:51:00;101909.44;;;42.79
34125;BMP280;20110;53.120;5.786;2023-06-10T10:53:26;101906.16;;;42.99
34125;BMP280;20110;53.120;5.786;2023-06-10T10:56:13;101910.59;;;43.19
34125;BMP280;20110;53.120;5.786;2023-06-10T10:58:39;101889.72;;;43.14
34125;BMP280;20110;53.120;5.786;2023-06-10T11:01:14;101898.41;;;43.57
34125;BMP280;20110;53.120;5.786;2023-06-10T11:03:45;101893.78;;;43.72
34125;BMP280;20110;53.120;5.786;2023-06-10T11:06:14;101905.25;;;43.89
34125;BMP280;20110;53.120;5.786;2023-06-10T11:11:25;101896.91;;;44.09
34125;BMP280;20110;53.120;5.786;2023-06-10T11:16:28;101892.44;;;43.96
34125;BMP280;20110;53.120;5.786;2023-06-10T11:18:55;101890.72;;;43.82
34125;BMP280;20110;53.120;5.786;2023-06-10T11:21:26;101899.44;;;43.95
34125;BMP280;20110;53.120;5.786;2023-06-10T11:23:51;101888.13;;;43.99
34125;BMP280;20110;53.120;5.786;2023-06-10T11:26:18;101881.69;;;44.27
34125;BMP280;20110;53.120;5.786;2023-06-10T11:31:26;101878.66;;;44.35
34125;BMP280;20110;53.120;5.786;2023-06-10T11:33:58;101893.00;;;44.68
34125;BMP280;20110;53.120;5.786;2023-06-10T11:36:28;101881.25;;;44.86
34125;BMP280;20110;53.120;5.786;2023-06-10T11:39:00;101885.75;;;44.98
34125;BMP280;20110;53.120;5.786;2023-06-10T11:41:28;101891.84;;;44.61
34125;BMP280;20110;53.120;5.786;2023-06-10T11:44:18;101890.72;;;44.29
34125;BMP280;20110;53.120;5.786;2023-06-10T11:46:44;101881.56;;;44.54
34125;BMP280;20110;53.120;5.786;2023-06-10T11:49:11;101861.84;;;44.58
34125;BMP280;20110;53.120;5.786;2023-06-10T11:51:39;101888.72;;;44.71
34125;BMP280;20110;53.120;5.786;2023-06-10T11:54:08;101884.69;;;44.66
34125;BMP280;20110;53.120;5.786;2023-06-10T11:56:35;101884.13;;;44.39
34125;BMP280;20110;53.120;5.786;2023-06-10T11:59:04;101876.47;;;44.15
34125;BMP280;20110;53.120;5.786;2023-06-10T12:01:34;101869.31;;;44.20
34125;BMP280;20110;53.120;5.786;2023-06-10T12:04:07;101878.50;;;44.39
34125;BMP280;20110;53.120;5.786;2023-06-10T12:06:51;101860.84;;;44.45
34125;BMP280;20110;53.120;5.786;2023-06-10T12:09:26;101853.34;;;44.60
34125;BMP280;20110;53.120;5.786;2023-06-10T12:12:04;101864.66;;;44.78
34125;BMP280;20110;53.120;5.786;2023-06-10T12:14:57;101868.22;;;44.97
34125;BMP280;20110;53.120;5.786;2023-06-10T12:17:37;101846.16;;;45.08
34125;BMP280;20110;53.120;5.786;2023-06-10T12:20:08;101867.19;;;45.46
34125;BMP280;20110;53.120;5.786;2023-06-10T12:22:42;101867.53;;;45.75
34125;BMP280;20110;53.120;5.786;2023-06-10T12:25:10;101849.66;;;45.85
34125;BMP280;20110;53.120;5.786;2023-06-10T12:27:38;101864.06;;;45.94
34125;BMP280;20110;53.120;5.786;2023-06-10T12:30:05;101853.81;;;45.67
34125;BMP280;20110;53.120;5.786;2023-06-10T12:32:42;101850.56;;;45.22
34125;BMP280;20110;53.120;5.786;2023-06-10T12:35:10;101819.66;;;45.03
34125;BMP280;20110;53.120;5.786;2023-06-10T12:37:37;101848.09;;;45.32
34125;BMP280;20110;53.120;5.786;2023-06-10T12:40:12;101848.88;;;45.49
34125;BMP280;20110;53.120;5.786;2023-06-10T12:42:39;101851.84;;;45.82
34125;BMP280;20110;53.120;5.786;2023-06-10T12:45:05;101847.50;;;45.67
34125;BMP280;20110;53.120;5.786;2023-06-10T12:47:36;101844.69;;;45.48
34125;BMP280;20110;53.120;5.786;2023-06-10T12:50:05;101850.09;;;45.15
34125;BMP280;20110;53.120;5.786;2023-06-10T12:52:31;101840.56;;;44.44
34125;BMP280;20110;53.120;5.786;2023-06-10T12:54:58;101829.41;;;43.97
34125;BMP280;20110;53.120;5.786;2023-06-10T12:57:24;101807.38;;;43.09
34125;BMP280;20110;53.120;5.786;2023-06-10T12:59:51;101831.47;;;42.36
34125;BMP280;20110;53.120;5.786;2023-06-10T13:02:22;101834.69;;;41.81
34125;BMP280;20110;53.120;5.786;2023-06-10T13:04:52;101816.69;;;40.97
34125;BMP280;20110;53.120;5.786;2023-06-10T13:07:19;101832.16;;;40.37
34125;BMP280;20110;53.120;5.786;2023-06-10T13:09:45;101827.94;;;39.83
34125;BMP280;20110;53.120;5.786;2023-06-10T13:12:14;101830.47;;;39.30
34125;BMP280;20110;53.120;5.786;2023-06-10T13:14:40;101829.41;;;38.84
34125;BMP280;20110;53.120;5.786;2023-06-10T13:17:06;101822.69;;;38.37
34125;BMP280;20110;53.120;5.786;2023-06-10T13:19:35;101830.41;;;37.96
34125;BMP280;20110;53.120;5.786;2023-06-10T13:22:01;101833.22;;;37.68
34125;BMP280;20110;53.120;5.786;2023-06-10T13:24:26;101823.50;;;37.23
34125;BMP280;20110;53.120;5.786;2023-06-10T13:26:53;101830.31;;;36.87
34125;BMP280;20110;53.120;5.786;2023-06-10T13:29:20;101835.06;;;36.65
34125;BMP280;20110;53.120;5.786;2023-06-10T13:31:46;101830.78;;;36.39
34125;BMP280;20110;53.120;5.786;2023-06-10T13:34:12;101811.16;;;36.01
34125;BMP280;20110;53.120;5.786;2023-06-10T13:36:37;101802.78;;;35.89
34125;BMP280;20110;53.120;5.786;2023-06-10T13:39:03;101827.66;;;35.89
34125;BMP280;20110;53.120;5.786;2023-06-10T13:41:29;101823.47;;;35.84
34125;BMP280;20110;53.120;5.786;2023-06-10T13:43:55;101822.63;;;35.69
34125;BMP280;20110;53.120;5.786;2023-06-10T13:46:21;101819.78;;;35.57
34125;BMP280;20110;53.120;5.786;2023-06-10T13:48:48;101820.25;;;35.36
34125;BMP280;20110;53.120;5.786;2023-06-10T13:51:14;101822.22;;;35.23
34125;BMP280;20110;53.120;5.786;2023-06-10T13:53:39;101825.69;;;35.25
34125;BMP280;20110;53.120;5.786;2023-06-10T13:56:05;101818.75;;;35.22
34125;BMP280;20110;53.120;5.786;2023-06-10T13:58:31;101804.72;;;35.02
34125;BMP280;20110;53.120;5.786;2023-06-10T14:00:57;101819.28;;;35.09
34125;BMP280;20110;53.120;5.786;2023-06-10T14:03:24;101820.59;;;35.04
34125;BMP280;20110;53.120;5.786;2023-06-10T14:05:50;101822.63;;;34.99
34125;BMP280;20110;53.120;5.786;2023-06-10T14:08:16;101789.13;;;34.69
34125;BMP280;20110;53.120;5.786;2023-06-10T14:10:43;101796.03;;;34.70
34125;BMP280;20110;53.120;5.786;2023-06-10T14:13:08;101771.59;;;34.48
34125;BMP280;20110;53.120;5.786;2023-06-10T14:15:34;101814.81;;;34.82